createdAt,value
2023-02-02T00:04:37.177Z,5.70
2023-02-02T00:07:09.846Z,6.00
2023-02-02T00:09:41.469Z,4.60
2023-02-02T00:14:43.203Z,3.80
2023-02-02T00:19:46.689Z,3.50
2023-02-02T00:22:18.371Z,3.30
2023-02-02T00:27:20.080Z,2.80
2023-02-02T00:32:25.378Z,2.50
2023-02-02T00:37:27.172Z,2.50
2023-02-02T00:42:29.080Z,2.20
2023-02-02T00:45:18.674Z,2.40
2023-02-02T00:47:51.411Z,2.60
2023-02-02T00:50:23.719Z,2.40
2023-02-02T00:52:55.436Z,2.40
2023-02-02T00:57:58.494Z,2.30
2023-02-02T01:00:30.549Z,2.50
2023-02-02T01:05:36.734Z,2.30
2023-02-02T01:08:08.970Z,2.00
2023-02-02T01:10:40.595Z,2.30
2023-02-02T01:13:12.443Z,2.20
2023-02-02T01:18:15.463Z,2.60
2023-02-02T01:23:17.225Z,2.60
2023-02-02T01:28:26.106Z,3.00
2023-02-02T01:31:00.325Z,3.30
2023-02-02T01:33:32.026Z,3.10
2023-02-02T01:38:36.619Z,3.40
2023-02-02T01:41:09.318Z,3.30
2023-02-02T01:43:56.734Z,3.30
2023-02-02T01:46:31.459Z,3.50
2023-02-02T01:49:08.363Z,3.10
2023-02-02T01:51:45.389Z,3.50
2023-02-02T01:54:21.412Z,3.30
2023-02-02T01:56:57.211Z,3.40
2023-02-02T01:59:29.849Z,3.70
2023-02-02T02:02:02.578Z,3.60
2023-02-02T02:04:35.027Z,4.10
2023-02-02T02:07:08.083Z,3.50
2023-02-02T02:09:41.063Z,3.50
2023-02-02T02:15:07.998Z,5.20
2023-02-02T02:17:50.640Z,3.80
2023-02-02T02:21:06.631Z,3.80
2023-02-02T02:24:30.010Z,4.30
2023-02-02T02:27:15.402Z,4.00
2023-02-02T02:30:10.761Z,4.70
2023-02-02T02:32:51.968Z,4.50
2023-02-02T02:35:34.199Z,5.10
2023-02-02T02:38:10.723Z,5.10
2023-02-02T02:40:48.395Z,4.80
2023-02-02T02:43:25.088Z,4.80
2023-02-02T02:45:58.488Z,4.80
2023-02-02T02:48:31.302Z,4.60
2023-02-02T02:51:10.283Z,5.00
2023-02-02T02:53:42.691Z,5.50
2023-02-02T02:56:21.852Z,4.50
2023-02-02T02:59:02.512Z,5.40
2023-02-02T03:01:40.195Z,5.60
2023-02-02T03:04:19.454Z,6.00
2023-02-02T03:06:55.976Z,5.00
2023-02-02T03:09:32.713Z,5.60
2023-02-02T03:12:05.023Z,5.10
2023-02-02T03:14:39.392Z,4.70
2023-02-02T03:17:11.008Z,5.70
2023-02-02T03:22:12.719Z,4.70
2023-02-02T03:27:14.472Z,5.10
2023-02-02T03:32:16.261Z,4.80
2023-02-02T03:37:18.800Z,5.30
2023-02-02T03:39:50.411Z,4.60
2023-02-02T03:44:52.194Z,4.80
2023-02-02T03:49:53.968Z,4.50
2023-02-02T03:54:55.739Z,5.20
2023-02-02T03:59:57.506Z,4.90
2023-02-02T04:04:59.633Z,5.40
2023-02-02T04:07:31.247Z,5.30
2023-02-02T04:12:33.047Z,5.00
2023-02-02T04:15:05.492Z,5.20
2023-02-02T04:17:37.193Z,4.40
2023-02-02T04:22:41.277Z,4.90
2023-02-02T04:27:43.075Z,4.90
2023-02-02T04:32:45.450Z,5.50
2023-02-02T04:37:47.320Z,5.30
2023-02-02T04:42:49.215Z,5.10
2023-02-02T04:47:51.602Z,5.30
2023-02-02T04:50:23.520Z,5.60
2023-02-02T04:52:55.169Z,5.80
2023-02-02T04:57:57.900Z,5.70
2023-02-02T05:02:59.675Z,5.10
2023-02-02T05:08:01.557Z,5.10
2023-02-02T05:13:03.528Z,5.50
2023-02-02T05:18:05.741Z,5.50
2023-02-02T05:20:37.347Z,6.60
2023-02-02T05:25:39.084Z,6.50
2023-02-02T05:30:42.462Z,7.10
2023-02-02T05:33:14.107Z,8.10
2023-02-02T05:38:18.006Z,8.70
2023-02-02T05:40:50.856Z,8.90
2023-02-02T05:43:25.315Z,9.50
2023-02-02T05:45:57.407Z,9.40
2023-02-02T05:48:29.391Z,9.30
2023-02-02T05:51:04.620Z,10.40
2023-02-02T05:53:36.233Z,9.80
2023-02-02T05:56:08.358Z,9.90
2023-02-02T05:58:40.092Z,10.10
2023-02-02T06:03:42.417Z,10.00
2023-02-02T06:06:14.574Z,10.00
2023-02-02T06:08:46.246Z,9.90
2023-02-02T06:13:49.320Z,10.00
2023-02-02T06:18:51.193Z,9.10
2023-02-02T06:21:23.154Z,9.60
2023-02-02T06:23:54.935Z,9.10
2023-02-02T06:26:27.206Z,8.90
2023-02-02T06:28:59.025Z,8.90
2023-02-02T06:31:30.952Z,8.90
2023-02-02T06:34:02.740Z,8.20
2023-02-02T06:39:05.856Z,8.70
2023-02-02T06:41:37.897Z,7.70
2023-02-02T06:44:09.863Z,8.30
2023-02-02T06:46:41.515Z,9.20
2023-02-02T06:51:43.404Z,8.30
2023-02-02T06:54:15.246Z,7.80
2023-02-02T06:56:46.858Z,18.10
2023-02-02T07:01:51.308Z,9.20
2023-02-02T07:04:23.044Z,9.80
2023-02-02T07:09:24.863Z,8.80
2023-02-02T07:14:27.057Z,7.70
2023-02-02T07:16:58.949Z,8.50
2023-02-02T07:22:00.683Z,8.40
2023-02-02T07:27:02.463Z,8.80
2023-02-02T07:32:04.426Z,9.00
2023-02-02T07:37:06.176Z,8.50
2023-02-02T07:42:08.645Z,8.60
2023-02-02T07:44:40.617Z,9.50
2023-02-02T07:49:42.404Z,9.00
2023-02-02T07:54:44.128Z,10.10
2023-02-02T07:59:45.967Z,10.60
2023-02-02T08:04:48.370Z,11.60
2023-02-02T08:07:21.442Z,11.20
2023-02-02T08:09:53.218Z,12.80
2023-02-02T08:12:26.514Z,11.90
2023-02-02T08:14:59.054Z,11.40
2023-02-02T08:17:30.721Z,12.60
2023-02-02T08:22:33.391Z,12.00
2023-02-02T08:25:05.132Z,11.10
2023-02-02T08:30:13.699Z,11.10
2023-02-02T08:32:45.358Z,11.80
2023-02-02T08:37:50.102Z,10.80
2023-02-02T08:40:25.236Z,10.90
2023-02-02T08:42:57.473Z,10.90
2023-02-02T08:46:01.811Z,10.80
2023-02-02T08:48:21.619Z,10.90
2023-02-02T08:50:58.149Z,8.60
2023-02-02T08:53:30.743Z,10.00
2023-02-02T08:56:04.002Z,10.00
2023-02-02T08:58:36.263Z,9.30
2023-02-02T09:01:10.517Z,8.70
2023-02-02T09:03:42.438Z,8.40
2023-02-02T09:06:16.788Z,7.50
2023-02-02T09:08:49.154Z,7.00
2023-02-02T09:11:21.823Z,7.50
2023-02-02T09:14:01.019Z,6.70
2023-02-02T09:16:33.410Z,5.60
2023-02-02T09:19:10.551Z,5.60
2023-02-02T09:21:42.369Z,5.10
2023-02-02T09:26:45.907Z,4.70
2023-02-02T09:29:18.786Z,4.20
2023-02-02T09:31:50.487Z,5.10
2023-02-02T09:34:22.194Z,4.80
2023-02-02T09:39:25.511Z,4.60
2023-02-02T09:42:31.651Z,4.40
2023-02-02T09:45:07.973Z,3.80
2023-02-02T09:47:55.975Z,4.00
2023-02-02T09:50:42.639Z,4.50
2023-02-02T09:53:21.975Z,4.40
2023-02-02T09:55:56.872Z,4.70
2023-02-02T09:58:33.767Z,4.30
2023-02-02T10:01:09.556Z,4.10
2023-02-02T10:03:46.438Z,4.00
2023-02-02T10:06:29.215Z,4.20
2023-02-02T10:09:09.688Z,4.70
2023-02-02T10:11:47.292Z,4.60
2023-02-02T10:14:24.083Z,4.60
2023-02-02T10:16:58.101Z,4.40
2023-02-02T10:19:30.781Z,4.90
2023-02-02T10:22:11.015Z,4.90
2023-02-02T10:24:42.803Z,5.30
2023-02-02T10:27:17.786Z,6.20
2023-02-02T10:29:57.561Z,5.30
2023-02-02T10:32:35.269Z,5.50
2023-02-02T10:35:22.863Z,5.90
2023-02-02T10:38:00.019Z,6.20
2023-02-02T10:40:43.686Z,5.90
2023-02-02T10:43:48.837Z,7.00
2023-02-02T10:46:24.732Z,6.30
2023-02-02T10:49:12.202Z,5.20
2023-02-02T10:51:50.134Z,5.20
2023-02-02T10:54:54.842Z,5.00
2023-02-02T10:57:45.193Z,5.50
2023-02-02T11:00:23.585Z,4.90
2023-02-02T11:02:56.107Z,6.20
2023-02-02T11:05:47.505Z,6.40
2023-02-02T11:08:22.588Z,7.50
2023-02-02T11:10:56.182Z,6.90
2023-02-02T11:13:31.957Z,6.50
2023-02-02T11:16:32.573Z,5.80
2023-02-02T11:19:28.749Z,5.60
2023-02-02T11:22:02.743Z,6.10
2023-02-02T11:24:41.219Z,6.00
2023-02-02T11:27:19.205Z,7.90
2023-02-02T11:29:53.526Z,6.70
2023-02-02T11:32:32.544Z,5.30
2023-02-02T11:35:23.244Z,5.80
2023-02-02T11:38:10.233Z,6.00
2023-02-02T11:40:45.315Z,5.50
2023-02-02T11:43:26.845Z,12.20
2023-02-02T11:46:03.421Z,6.30
2023-02-02T11:48:38.750Z,9.30
2023-02-02T11:51:21.905Z,8.10
2023-02-02T11:54:06.129Z,5.50
2023-02-02T11:56:39.663Z,6.30
2023-02-02T11:59:30.835Z,6.30
2023-02-02T12:02:28.332Z,8.10
2023-02-02T12:05:37.090Z,10.30
2023-02-02T12:08:12.656Z,86.90
2023-02-02T12:10:49.196Z,22.80
2023-02-02T12:13:31.623Z,9.90
2023-02-02T12:16:14.097Z,8.30
2023-02-02T12:18:59.628Z,9.70
2023-02-02T12:21:41.541Z,8.90
2023-02-02T12:24:29.495Z,8.40
2023-02-02T12:27:16.651Z,8.50
2023-02-02T12:30:03.362Z,19.00
2023-02-02T12:33:09.399Z,8.40
2023-02-02T12:35:57.829Z,7.20
2023-02-02T12:38:43.893Z,8.40
2023-02-02T12:41:27.992Z,7.30
2023-02-02T12:44:09.193Z,8.90
2023-02-02T12:46:51.808Z,8.00
2023-02-02T12:49:53.123Z,11.70
2023-02-02T12:52:40.283Z,7.40
2023-02-02T12:55:23.190Z,8.60
2023-02-02T12:58:07.570Z,9.90
2023-02-02T13:00:58.791Z,11.70
2023-02-02T13:03:42.031Z,9.60
2023-02-02T13:06:41.192Z,6.90
2023-02-02T13:09:19.639Z,6.80
2023-02-02T13:11:57.331Z,6.40
2023-02-02T13:14:34.217Z,6.50
2023-02-02T13:17:11.079Z,6.30
2023-02-02T13:19:46.120Z,8.50
2023-02-02T13:22:22.057Z,8.30
2023-02-02T13:25:01.401Z,8.10
2023-02-02T13:27:33.993Z,8.40
2023-02-02T13:30:14.555Z,8.60
2023-02-02T13:32:48.169Z,8.30
2023-02-02T13:35:24.661Z,9.30
2023-02-02T13:38:04.214Z,9.40
2023-02-02T13:40:39.805Z,10.80
2023-02-02T13:43:24.684Z,9.90
2023-02-02T13:46:07.716Z,10.10
2023-02-02T13:48:49.383Z,10.50
2023-02-02T13:51:43.497Z,9.50
2023-02-02T13:55:02.558Z,9.80
2023-02-02T14:00:46.013Z,11.70
2023-02-02T14:03:39.703Z,10.70
2023-02-02T14:06:15.163Z,11.20
2023-02-02T14:08:52.673Z,11.50
2023-02-02T14:11:29.879Z,11.40
2023-02-02T14:14:28.782Z,11.90
2023-02-02T14:17:01.263Z,11.40
2023-02-02T14:19:51.042Z,11.60
2023-02-02T14:22:47.931Z,11.30
2023-02-02T14:25:55.313Z,11.60
2023-02-02T14:28:45.387Z,10.60
2023-02-02T14:31:31.535Z,11.40
2023-02-02T14:34:30.508Z,11.50
2023-02-02T14:37:29.721Z,11.70
2023-02-02T14:40:19.870Z,12.50
2023-02-02T14:43:21.783Z,12.90
2023-02-02T14:46:32.948Z,11.40
2023-02-02T14:49:26.100Z,17.20
2023-02-02T14:52:05.223Z,18.20
2023-02-02T14:54:41.109Z,18.60
2023-02-02T14:57:28.229Z,18.30
2023-02-02T15:00:01.877Z,12.30
2023-02-02T15:02:37.433Z,10.80
2023-02-02T15:05:46.205Z,38.70
2023-02-02T15:08:25.531Z,19.70
2023-02-02T15:11:26.548Z,22.50
2023-02-02T15:14:17.004Z,40.90
2023-02-02T15:16:49.169Z,60.00
2023-02-02T15:19:32.293Z,48.70
2023-02-02T15:22:17.460Z,25.90
2023-02-02T15:24:50.345Z,22.50
2023-02-02T15:27:24.844Z,33.40
2023-02-02T15:30:02.553Z,27.40
2023-02-02T15:32:35.441Z,26.10
2023-02-02T15:35:18.851Z,22.00
2023-02-02T15:37:55.465Z,17.30
2023-02-02T15:40:29.125Z,17.70
2023-02-02T15:43:05.214Z,23.50
2023-02-02T15:45:43.543Z,29.60
2023-02-02T15:48:25.514Z,23.50
2023-02-02T15:50:58.780Z,25.10
2023-02-02T15:53:34.945Z,15.90
2023-02-02T15:56:21.999Z,15.00
2023-02-02T15:58:56.247Z,12.20
2023-02-02T16:01:33.552Z,10.10
2023-02-02T16:04:18.074Z,10.70
2023-02-02T16:06:50.973Z,8.00
2023-02-02T16:09:27.927Z,9.30
2023-02-02T16:12:01.412Z,10.80
2023-02-02T16:14:36.293Z,11.60
2023-02-02T16:17:20.651Z,8.70
2023-02-02T16:19:57.989Z,7.70
2023-02-02T16:22:30.964Z,8.60
2023-02-02T16:25:11.410Z,11.20
2023-02-02T16:27:49.611Z,14.90
2023-02-02T16:30:28.928Z,9.90
2023-02-02T16:33:20.938Z,9.90
2023-02-02T16:38:31.180Z,11.60
2023-02-02T16:41:08.407Z,11.70
2023-02-02T16:43:41.964Z,13.10
2023-02-02T16:46:17.653Z,15.90
2023-02-02T16:49:15.713Z,10.40
2023-02-02T16:51:49.348Z,9.40
2023-02-02T16:54:24.009Z,10.40
2023-02-02T16:57:03.114Z,10.90
2023-02-02T16:59:38.076Z,15.20
2023-02-02T17:02:22.120Z,15.80
2023-02-02T17:04:58.335Z,18.60
2023-02-02T17:07:32.820Z,22.20
2023-02-02T17:10:24.912Z,20.00
2023-02-02T17:12:56.948Z,19.40
2023-02-02T17:15:34.816Z,18.20
2023-02-02T17:18:07.638Z,10.90
2023-02-02T17:20:40.673Z,9.40
2023-02-02T17:23:19.511Z,9.10
2023-02-02T17:25:51.162Z,8.70
2023-02-02T17:30:58.976Z,43.10
2023-02-02T17:33:34.389Z,29.30
2023-02-02T17:36:07.558Z,17.20
2023-02-02T17:38:39.942Z,13.20
2023-02-02T17:41:15.257Z,28.90
2023-02-02T17:43:48.541Z,47.40
2023-02-02T17:46:20.683Z,65.00
2023-02-02T17:48:52.826Z,39.60
2023-02-02T17:51:25.008Z,13.80
2023-02-02T17:53:59.985Z,13.70
2023-02-02T17:56:31.980Z,19.40
2023-02-02T17:59:03.743Z,28.70
2023-02-02T18:01:39.244Z,42.60
2023-02-02T18:04:15.324Z,72.70
2023-02-02T18:06:46.964Z,32.20
2023-02-02T18:11:49.979Z,45.60
2023-02-02T18:14:23.059Z,18.30
2023-02-02T18:16:56.140Z,17.60
2023-02-02T18:19:28.009Z,42.80
2023-02-02T18:21:59.678Z,40.60
2023-02-02T18:27:01.662Z,16.00
2023-02-02T18:29:34.099Z,12.80
2023-02-02T18:32:06.421Z,15.70
2023-02-02T18:34:38.264Z,31.30
2023-02-02T18:37:10.029Z,41.90
2023-02-02T18:39:42.191Z,40.30
2023-02-02T18:43:09.177Z,79.10
2023-02-02T18:45:40.926Z,25.50
2023-02-02T18:50:43.217Z,45.20
2023-02-02T18:53:17.747Z,22.70
2023-02-02T18:55:50.273Z,28.60
2023-02-02T18:58:21.950Z,27.50
2023-02-02T19:03:25.875Z,18.00
2023-02-02T19:06:14.913Z,43.60
2023-02-02T19:08:46.748Z,80.90
2023-02-02T19:11:21.448Z,31.00
2023-02-02T19:13:53.307Z,19.90
2023-02-02T19:16:28.316Z,23.10
2023-02-02T19:19:05.323Z,15.30
2023-02-02T19:21:36.980Z,16.60
2023-02-02T19:24:14.701Z,16.40
2023-02-02T19:26:50.569Z,16.40
2023-02-02T19:29:25.135Z,20.00
2023-02-02T19:32:03.030Z,20.50
2023-02-02T19:34:36.191Z,15.50
2023-02-02T19:37:24.386Z,18.30
2023-02-02T19:40:03.583Z,23.70
2023-02-02T19:42:35.784Z,11.10
2023-02-02T19:45:23.222Z,20.50
2023-02-02T19:47:57.407Z,15.70
2023-02-02T19:50:37.621Z,17.00
2023-02-02T19:53:17.328Z,17.60
2023-02-02T19:55:49.704Z,19.60
2023-02-02T19:58:24.127Z,17.60
2023-02-02T20:00:57.877Z,15.60
2023-02-02T20:03:37.438Z,20.90
2023-02-02T20:06:13.427Z,25.70
2023-02-02T20:08:46.600Z,19.10
2023-02-02T20:11:32.942Z,18.50
2023-02-02T20:14:22.577Z,18.00
2023-02-02T20:16:59.465Z,18.10
2023-02-02T20:19:37.047Z,21.10
2023-02-02T20:22:23.897Z,17.00
2023-02-02T20:24:56.743Z,21.00
2023-02-02T20:27:30.901Z,22.20
2023-02-02T20:30:19.626Z,15.90
2023-02-02T20:32:55.423Z,16.70
2023-02-02T20:35:36.195Z,20.50
2023-02-02T20:38:21.568Z,19.10
2023-02-02T20:40:54.044Z,14.70
2023-02-02T20:43:25.787Z,13.20
2023-02-02T20:45:57.463Z,13.50
2023-02-02T20:50:59.359Z,24.10
2023-02-02T20:53:31.098Z,10.90
2023-02-02T20:58:34.697Z,13.90
2023-02-02T21:01:06.455Z,16.60
2023-02-02T21:03:38.145Z,16.20
2023-02-02T21:08:40.263Z,16.10
2023-02-02T21:11:12.012Z,32.70
2023-02-02T21:13:43.680Z,19.10
2023-02-02T21:18:47.399Z,16.00
2023-02-02T21:21:21.016Z,16.00
2023-02-02T21:23:53.475Z,33.60
2023-02-02T21:26:30.067Z,17.00
2023-02-02T21:29:01.843Z,13.90
2023-02-02T21:34:08.948Z,57.40
2023-02-02T21:36:44.014Z,15.90
2023-02-02T21:39:21.546Z,13.10
2023-02-02T21:41:59.249Z,14.80
2023-02-02T21:44:33.095Z,12.20
2023-02-02T21:47:16.783Z,10.40
2023-02-02T21:49:48.935Z,16.80
2023-02-02T21:52:21.864Z,11.60
2023-02-02T21:54:53.552Z,46.70
2023-02-02T21:59:58.561Z,11.70
2023-02-02T22:02:42.544Z,10.80
2023-02-02T22:05:22.754Z,12.50
2023-02-02T22:07:57.702Z,15.20
2023-02-02T22:10:39.560Z,15.60
2023-02-02T22:15:47.720Z,17.70
2023-02-02T22:18:21.676Z,11.80
2023-02-02T22:20:56.424Z,12.90
2023-02-02T22:23:29.831Z,13.40
2023-02-02T22:26:01.822Z,12.80
2023-02-02T22:28:40.458Z,13.70
2023-02-02T22:31:12.730Z,16.70
2023-02-02T22:33:44.514Z,12.80
2023-02-02T22:38:46.546Z,11.90
2023-02-02T22:41:18.427Z,23.20
2023-02-02T22:43:50.276Z,19.30
2023-02-02T22:46:21.989Z,18.20
2023-02-02T22:51:23.777Z,14.10
2023-02-02T22:56:26.152Z,11.70
2023-02-02T22:58:57.755Z,10.90
2023-02-02T23:01:29.454Z,13.20
2023-02-02T23:06:31.417Z,12.90
2023-02-02T23:09:04.659Z,12.50
2023-02-02T23:14:06.403Z,13.10
2023-02-02T23:19:08.221Z,26.00
2023-02-02T23:24:12.141Z,28.30
2023-02-02T23:26:43.958Z,17.60
2023-02-02T23:29:15.758Z,13.20
2023-02-02T23:31:47.488Z,12.10
2023-02-02T23:34:19.753Z,11.40
2023-02-02T23:36:53.553Z,13.20
2023-02-02T23:39:25.517Z,20.20
2023-02-02T23:41:57.169Z,11.20
2023-02-02T23:46:59.971Z,10.50
2023-02-02T23:49:33.881Z,10.50
2023-02-02T23:52:06.016Z,11.20
2023-02-02T23:54:37.898Z,9.90
2023-02-02T23:57:09.666Z,9.40
2023-02-02T23:59:41.400Z,9.60
